Latest Weather Observations for Tindal

IDD60801

Issued at 5:01 pm CST Wednesday 1 April 2015 (issued every 30 minutes, with the page automatically refreshed every 10 minutes)

About weather observations | Map of weather stations | Latest weather observations for NT | Other Formats
Station Details ID: 014932 Name: TINDAL RAAF Lat: -14.52 Lon: 132.38 Height: 133.6 m
Data from the previous 72 hours. | See also: Recent months at Tindal
Date/Time
CST
Temp
°C
App
Temp
°C
Dew
Point
Rel
Hum
%
Delta-T
°C
Wind Press
QNH
hPa
Press
MSL
hPa
Rain
since 9 am
mm
Dir
 
Spd
km/h
Gust
km/h
Spd
kts
Gust
kts
01/05:00pm 35.0 36.0 20.2 42 10.0 ENE 15 20 8 11 1008.7 - 0.0
01/04:30pm 35.1 36.1 20.2 41 10.0 ESE 15 20 8 11 1008.7 - 0.0
01/04:00pm 35.3 36.9 20.8 42 9.8 E 13 20 7 11 1008.7 - 0.0
01/03:30pm 35.4 37.1 20.9 42 9.8 ESE 13 22 7 12 1008.8 - 0.0
01/03:00pm 35.1 36.1 19.5 40 10.4 SSE 13 20 7 11 1009.1 1008.2 0.0
01/02:30pm 35.1 36.8 21.0 43 9.6 S 13 19 7 10 1009.5 - 0.0
01/02:00pm 35.3 36.4 20.4 41 10.0 ESE 15 20 8 11 1010.0 - 0.0
01/01:30pm 34.2 35.5 20.9 45 9.0 SE 15 24 8 13 1010.4 - 0.0
01/01:00pm 33.4 35.5 20.9 48 8.4 ENE 11 19 6 10 1011.0 - 0.0
01/12:30pm 33.7 36.1 21.5 49 8.3 E 11 24 6 13 1011.5 - 0.0
01/12:00pm 33.7 36.3 20.5 46 8.9 ESE 7 11 4 6 1012.3 1011.4 0.0
01/11:30am 33.5 35.1 19.9 44 9.1 SE 11 17 6 9 1012.8 - 0.0
01/11:00am 32.9 34.6 19.4 45 8.9 E 9 13 5 7 1013.3 - 0.0
01/10:30am 32.0 34.7 20.3 50 7.8 NNW 6 9 3 5 1013.5 - 0.0
01/10:00am 31.0 34.7 22.3 60 5.9 ENE 6 9 3 5 1013.7 - 0.0
01/09:30am 29.9 33.6 22.3 63 5.2 WNW 6 11 3 6 1013.7 - 0.0
01/09:00am 28.6 33.7 22.6 70 4.1 CALM 0 4 0 2 1013.5 1012.7 0.0
01/08:30am 27.1 31.1 22.7 77 3.0 SE 6 7 3 4 1013.3 - 0.0
01/08:00am 25.1 29.2 23.0 88 1.4 SSE 6 7 3 4 1013.1 - 0.0
01/07:30am 24.2 28.1 22.5 90 1.1 SE 6 7 3 4 1012.6 - 0.0
01/07:00am 23.2 26.8 22.0 93 0.8 SSE 6 7 3 4 1012.4 - 0.0
01/06:30am 23.4 26.9 22.2 93 0.8 SSE 7 9 4 5 1012.1 - 0.0
01/06:00am 23.4 27.1 22.2 93 0.8 SE 6 9 3 5 1011.9 1011.0 0.0
01/05:30am 23.4 27.9 22.2 93 0.8 SE 2 7 1 4 1011.6 - 0.0
01/05:00am 23.3 27.3 22.1 93 0.8 SE 4 6 2 3 1011.5 - 0.0
01/04:30am 23.2 26.2 22.0 93 0.8 SSE 9 11 5 6 1011.4 - 0.0
01/04:00am 23.5 27.1 22.1 92 0.9 SE 6 6 3 3 1011.2 - 0.0
01/03:30am 23.6 27.6 22.0 91 1.1 SE 4 6 2 3 1011.2 - 0.0
01/03:00am 23.6 27.3 22.2 92 0.9 SSE 6 7 3 4 1011.3 1010.4 0.0
01/02:30am 24.0 28.9 22.4 91 1.1 CALM 0 0 0 0 1011.6 - 0.0
01/02:00am 24.5 29.6 22.6 89 1.3 CALM 0 0 0 0 1011.8 - 0.0
01/01:30am 24.5 29.6 22.6 89 1.3 CALM 0 6 0 3 1012.3 - 0.0
01/01:00am 24.8 28.8 22.7 88 1.4 SSE 6 6 3 3 1012.5 - 0.0
01/12:30am 24.9 28.9 22.8 88 1.4 SSE 6 6 3 3 1012.7 - 0.0
01/12:00am 24.9 29.0 23.0 89 1.3 ESE 6 7 3 4 1012.9 1012.0 0.0
 
Date/Time
CST
Temp
°C
App
Temp
°C
Dew
Point
Rel
Hum
%
Delta-T
°C
Wind Press
QNH
hPa
Press
MSL
hPa
Rain
since 9 am
mm
Dir
 
Spd
km/h
Gust
km/h
Spd
kts
Gust
kts
31/11:30pm 25.1 29.0 23.0 88 1.4 SSE 7 9 4 5 1013.0 - 0.0
31/11:00pm 25.6 30.4 22.9 85 1.8 ESE 2 7 1 4 1012.8 - 0.0
31/10:30pm 25.9 31.2 23.0 84 2.0 CALM 0 0 0 0 1012.7 - 0.0
31/10:00pm 26.3 31.6 23.0 82 2.3 CALM 0 0 0 0 1012.6 - 0.0
31/09:30pm 26.8 32.0 22.8 79 2.7 CALM 0 0 0 0 1012.6 - 0.0
31/09:00pm 26.6 30.8 23.1 81 2.4 ESE 6 7 3 4 1012.3 1011.3 0.0
31/08:30pm 27.4 31.3 23.0 77 3.0 SSE 7 9 4 5 1012.2 - 0.0
31/08:00pm 27.9 31.7 22.8 74 3.5 SE 7 9 4 5 1012.1 - 0.0
31/07:30pm 28.6 32.3 22.3 68 4.3 ESE 6 7 3 4 1011.9 - 0.0
31/07:00pm 29.7 32.6 21.1 60 5.8 ESE 7 9 4 5 1011.5 - 0.0
31/06:30pm 31.3 34.4 21.5 56 6.6 ESE 7 11 4 6 1011.2 - 0.0
31/06:00pm 32.4 33.8 20.3 48 8.1 E 13 19 7 10 1011.0 1010.0 0.0
31/05:30pm 33.3 34.6 20.1 45 8.8 E 13 22 7 12 1010.9 - 0.0
31/05:00pm 34.2 35.0 19.8 42 9.6 ESE 15 20 8 11 1010.7 - 0.0
31/04:30pm 34.6 34.2 19.0 39 10.3 E 19 28 10 15 1010.6 - 0.0
31/04:00pm 35.1 35.0 19.5 40 10.4 E 19 28 10 15 1010.5 - 0.0
31/03:30pm 34.9 35.2 19.7 41 10.1 ESE 17 22 9 12 1010.4 - 0.0
31/03:00pm 35.3 35.1 18.4 37 11.1 E 17 28 9 15 1010.6 1009.6 0.0
31/02:30pm 34.8 33.8 17.9 36 11.0 E 20 28 11 15 1010.8 - 0.0
31/02:00pm 34.6 33.7 18.2 37 10.7 ESE 20 30 11 16 1011.3 - 0.0
31/01:30pm 34.6 34.2 19.0 39 10.3 E 19 30 10 16 1011.8 - 0.0
31/01:00pm 33.9 33.4 19.2 42 9.7 E 20 28 11 15 1012.4 - 0.0
31/12:30pm 33.3 34.4 20.4 46 8.6 E 15 22 8 12 1012.9 - 0.0
31/12:00pm 33.2 33.0 19.3 44 9.2 ESE 19 22 10 12 1013.5 1012.6 0.0
31/11:30am 32.8 33.1 19.6 45 8.7 E 17 24 9 13 1014.0 - 0.0
31/11:00am 32.1 34.1 21.6 53 7.1 ESE 13 20 7 11 1014.3 - 0.0
31/10:30am 30.8 33.3 21.0 56 6.6 E 9 17 5 9 1014.6 - 0.0
31/10:00am 30.0 32.6 21.9 62 5.5 E 11 17 6 9 1014.8 - 0.0
31/09:30am 29.0 31.9 22.5 68 4.4 E 11 15 6 8 1015.1 - 0.0
31/09:00am 28.4 31.4 22.6 71 4.0 E 11 17 6 9 1014.9 1014.0 0.0
31/08:30am 26.9 30.3 21.6 72 3.6 ESE 6 7 3 4 1014.8 - 0.0
31/08:00am 25.0 28.6 22.1 84 1.9 SE 6 7 3 4 1014.4 - 0.0
31/07:30am 22.9 25.9 21.2 90 1.1 SE 7 7 4 4 1014.1 - 0.0
31/07:00am 21.5 24.0 20.3 93 0.8 SE 7 9 4 5 1013.7 - 0.0
31/06:30am 21.7 25.3 20.5 93 0.8 SE 2 6 1 3 1013.3 - 0.0
31/06:00am 21.7 23.6 20.5 93 0.8 SSE 11 11 6 6 1013.1 1012.2 0.0
31/05:30am 21.8 24.1 20.6 93 0.8 SSE 9 11 5 6 1012.9 - 0.0
31/05:00am 21.7 24.3 20.5 93 0.8 SE 7 9 4 5 1012.7 - 0.0
31/04:30am 22.1 24.8 20.7 92 0.9 SSE 7 9 4 5 1012.6 - 0.0
31/04:00am 22.1 25.4 20.7 92 0.9 SE 4 6 2 3 1012.6 - 0.0
31/03:30am 22.1 24.8 20.7 92 0.9 SE 7 9 4 5 1012.5 - 0.0
31/03:00am 22.6 25.5 21.1 91 1.0 S 7 9 4 5 1012.6 1011.6 0.0
31/02:30am 23.0 26.0 20.9 88 1.4 S 6 7 3 4 1012.7 - 0.0
31/02:00am 23.5 26.4 21.0 86 1.6 S 7 9 4 5 1012.9 - 0.0
31/01:30am 24.8 27.7 20.7 78 2.7 SSE 6 7 3 4 1013.2 - 0.0
31/01:00am 25.6 27.4 20.4 73 3.4 ENE 11 15 6 8 1013.3 - 0.0
31/12:30am 25.9 27.5 20.7 73 3.4 ENE 13 17 7 9 1013.5 - 0.0
31/12:00am 24.5 27.3 21.6 84 1.9 E 9 11 5 6 1013.8 1012.9 0.0
 
Date/Time
CST
Temp
°C
App
Temp
°C
Dew
Point
Rel
Hum
%
Delta-T
°C
Wind Press
QNH
hPa
Press
MSL
hPa
Rain
since 9 am
mm
Dir
 
Spd
km/h
Gust
km/h
Spd
kts
Gust
kts
30/11:30pm 25.0 28.5 22.1 84 1.9 E 7 9 4 5 1014.0 - 0.0
30/11:00pm 25.7 28.7 22.0 80 2.5 ESE 9 11 5 6 1014.1 - 0.0
30/10:30pm 25.8 29.2 22.7 83 2.1 SE 9 11 5 6 1014.1 - 0.0
30/10:00pm 25.7 28.7 22.6 83 2.1 SE 11 13 6 7 1014.1 - 0.0
30/09:30pm 26.1 29.4 22.6 81 2.4 SE 9 11 5 6 1013.7 - 0.0
30/09:00pm 27.0 30.5 22.2 75 3.2 ESE 7 9 4 5 1013.5 1012.6 0.0
30/08:30pm 26.9 30.2 22.5 77 3.0 SE 9 11 5 6 1013.4 - 0.0
30/08:00pm 28.5 31.9 22.0 68 4.4 ESE 7 9 4 5 1013.1 - 0.0
30/07:30pm 29.0 31.9 21.7 64 4.9 ESE 9 11 5 6 1012.6 - 0.0
30/07:00pm 30.0 32.7 21.4 60 5.8 ESE 9 11 5 6 1012.3 - 0.0
30/06:30pm 31.6 33.2 20.8 52 7.2 ESE 13 15 7 8 1012.0 - 0.0
30/06:00pm 32.9 34.3 20.4 47 8.4 E 13 19 7 10 1011.7 1010.7 0.0
30/05:30pm 33.1 33.7 20.3 47 8.6 E 17 22 9 12 1011.7 - 0.0
30/05:00pm 33.8 33.8 19.8 43 9.3 E 19 30 10 16 1011.5 - 0.0
30/04:30pm 34.3 34.4 20.3 44 9.4 E 20 30 11 16 1011.4 - 0.0
30/04:00pm 34.6 34.8 20.6 44 9.4 ESE 20 28 11 15 1011.4 - 0.0
30/03:30pm 32.8 32.8 21.0 50 8.0 SE 22 30 12 16 1011.6 - 0.0
30/03:00pm 34.9 33.5 19.7 41 10.1 ESE 26 35 14 19 1011.7 1010.7 0.0
30/02:30pm 34.3 32.7 19.1 40 10.0 ESE 26 39 14 21 1011.9 - 0.0
30/02:00pm 33.6 31.1 18.9 41 9.7 ESE 30 44 16 24 1012.1 - 0.0
30/01:47pm 34.3 32.5 19.5 41 9.8 E 28 39 15 21 1012.0 - 0.0
30/01:30pm 34.0 34.3 19.6 42 9.6 ENE 17 20 9 11 1012.3 - 0.0
30/01:00pm 33.8 33.6 19.8 43 9.3 E 20 26 11 14 1012.7 - 0.0
30/12:30pm 33.6 32.6 19.7 44 9.2 ESE 24 33 13 18 1013.2 - 0.0
30/12:00pm 33.1 32.8 20.3 47 8.6 E 22 33 12 18 1013.6 1012.7 0.0
30/11:30am 32.9 32.1 20.1 47 8.5 E 24 35 13 19 1014.1 - 0.0
30/11:00am 32.4 33.5 21.3 52 7.5 E 17 24 9 13 1014.5 - 0.0
30/10:30am 31.7 32.0 20.3 50 7.6 E 19 32 10 17 1014.8 - 0.0
30/10:00am 30.4 32.0 21.5 59 6.0 E 15 20 8 11 1014.9 - 0.0
30/09:30am 29.2 31.3 22.4 66 4.6 E 15 22 8 12 1015.0 - 0.0
30/09:00am 27.7 30.7 22.6 74 3.5 ENE 11 17 6 9 1015.0 1014.1 0.0
30/08:30am 26.3 29.8 22.8 81 2.4 E 9 11 5 6 1014.6 - 0.0
30/08:00am 24.0 27.2 21.7 87 1.5 SE 7 9 4 5 1014.2 - 0.0
30/07:30am 22.5 25.0 21.1 92 0.9 SSE 9 9 5 5 1013.9 - 0.0
30/07:00am 21.8 24.2 20.8 94 0.7 SSE 9 11 5 6 1013.5 - 0.0
30/06:30am 21.6 24.3 20.6 94 0.7 SE 7 9 4 5 1013.1 - 0.0
30/06:00am 21.4 23.5 20.2 93 0.8 SSE 9 11 5 6 1012.8 1011.8 0.0
30/05:30am 21.8 24.1 20.6 93 0.8 S 9 11 5 6 1012.6 - 0.0
30/05:00am 21.9 24.6 20.7 93 0.8 SSE 7 9 4 5 1012.3 - 0.0
30/04:30am 22.0 24.8 20.8 93 0.8 SSE 7 7 4 4 1012.0 - 0.0
30/04:00am 22.3 25.1 20.9 92 0.9 S 7 7 4 4 1012.0 - 0.0
30/03:30am 22.3 25.3 20.9 92 0.9 SE 6 7 3 4 1012.0 - 0.0
30/03:00am 22.7 25.9 21.3 92 0.9 SE 6 7 3 4 1012.2 1011.2 0.0
30/02:30am 22.8 27.2 21.4 92 0.9 CALM 0 0 0 0 1012.4 - 0.0
30/02:00am 23.0 26.8 21.6 92 0.9 SSE 4 7 2 4 1012.6 - 0.0
30/01:30am 23.1 26.2 21.5 91 1.1 S 7 7 4 4 1013.1 - 0.0
30/01:00am 23.3 26.7 21.7 91 1.1 SE 6 9 3 5 1013.4 - 0.0
30/12:30am 23.3 26.5 21.6 90 1.1 SE 7 7 4 4 1013.7 - 0.0
30/12:00am 24.0 27.6 22.1 89 1.3 SE 6 7 3 4 1013.9 1013.0 0.0
 
Date/Time
CST
Temp
°C
App
Temp
°C
Dew
Point
Rel
Hum
%
Delta-T
°C
Wind Press
QNH
hPa
Press
MSL
hPa
Rain
since 9 am
mm
Dir
 
Spd
km/h
Gust
km/h
Spd
kts
Gust
kts
29/11:30pm 24.4 27.9 22.1 87 1.5 ENE 7 9 4 5 1014.2 - 0.0
29/11:00pm 24.7 28.3 22.4 87 1.5 ESE 7 9 4 5 1014.5 - 0.0
29/10:30pm 25.2 28.6 22.7 86 1.7 SSE 9 9 5 5 1014.4 - 0.0
29/10:00pm 25.5 29.2 22.6 84 2.0 SSE 7 9 4 5 1014.3 - 0.0
29/09:30pm 26.3 30.3 22.8 81 2.4 SE 6 7 3 4 1014.1 - 0.0
29/09:00pm 26.5 30.2 22.6 79 2.6 SSE 7 9 4 5 1013.8 1012.9 0.0
29/08:30pm 26.9 30.3 22.7 78 2.9 SSE 9 9 5 5 1013.6 - 0.0
29/08:00pm 27.7 31.4 22.6 74 3.5 SE 7 7 4 4 1013.2 - 0.0
29/07:30pm 28.4 31.7 21.9 68 4.4 SE 7 9 4 5 1012.9 - 0.0
29/07:00pm 29.6 32.5 21.0 60 5.8 ESE 7 9 4 5 1012.6 - 0.0
29/06:30pm 31.2 33.8 20.5 53 7.1 E 7 11 4 6 1012.3 - 0.0
29/06:00pm 32.4 33.3 20.0 48 8.3 E 15 20 8 11 1012.1 1011.1 0.0
29/05:30pm 33.1 32.8 19.6 45 9.0 E 20 26 11 14 1011.9 - 0.0

Other Formats:

Comma delimited format used in spreadsheet applications
http://www.bom.gov.au/fwo/IDD60801/IDD60801.94131.axf

JavaScript Object Notation format (JSON) in row-major order
http://www.bom.gov.au/fwo/IDD60801/IDD60801.94131.json